Time;durP1;ratioP1;P1;durP2;ratioP2;P2;SDS_P1;SDS_P2;PMS_P1;PMS_P2;Temp;Humidity;BMP_temperature;BMP_pressure;BME280_temperature;BME280_humidity;BME280_pressure;Samples;Min_cycle;Max_cycle;Signal;HPM_P1;HPM_P2
2022/05/29 00:00:49;;;;;;;3.92;0.80;;;21.00;43.80;20.20;101231.00;;;;5050078;28;20029;-66
2022/05/29 00:03:35;;;;;;;3.10;0.82;;;21.00;43.90;20.20;101227.00;;;;5044258;28;20097;-66
2022/05/29 00:06:21;;;;;;;3.10;0.73;;;21.00;43.90;20.20;101216.00;;;;5057987;28;20491;-66
2022/05/29 00:09:07;;;;;;;2.70;0.80;;;21.00;43.90;20.20;101217.00;;;;5074735;28;20044;-66
2022/05/29 00:11:53;;;;;;;3.60;0.77;;;21.00;43.90;20.20;101220.00;;;;5054965;28;20070;-66
2022/05/29 00:14:41;;;;;;;1.35;0.52;;;21.00;43.90;20.20;101216.00;;;;5046450;28;20414;-66
2022/05/29 00:17:27;;;;;;;1.40;0.60;;;21.00;44.50;20.20;101223.00;;;;5074263;28;20047;-66
2022/05/29 00:20:13;;;;;;;2.65;0.88;;;21.00;43.90;20.20;101221.00;;;;5060194;28;20417;-66
2022/05/29 00:22:59;;;;;;;2.28;0.77;;;21.00;43.90;20.20;101219.00;;;;5059955;28;20036;-66
2022/05/29 00:25:47;;;;;;;2.40;0.80;;;21.00;43.90;20.20;101209.00;;;;5041367;28;20043;-66
2022/05/29 00:28:33;;;;;;;1.23;0.68;;;21.00;43.80;20.20;101208.00;;;;5058970;28;20072;-66
2022/05/29 00:31:19;;;;;;;2.53;0.80;;;21.00;43.90;20.20;101211.00;;;;5044458;28;20102;-66
2022/05/29 00:34:05;;;;;;;2.92;0.90;;;21.00;43.90;20.20;101212.00;;;;5060839;28;20032;-66
2022/05/29 00:36:51;;;;;;;3.35;0.88;;;21.00;43.90;20.20;101202.00;;;;5057442;28;20040;-66
2022/05/29 00:39:37;;;;;;;2.65;0.60;;;21.00;44.00;20.20;101203.00;;;;5044283;28;20418;-66
2022/05/29 00:42:24;;;;;;;3.15;0.75;;;20.90;44.00;20.20;101196.00;;;;5059576;28;20368;-66
2022/05/29 00:45:15;;;;;;;4.22;0.75;;;21.00;44.00;20.20;101204.00;;;;5049506;28;20071;-66
2022/05/29 00:48:03;;;;;;;2.50;0.82;;;21.00;44.10;20.20;101197.00;;;;5060367;28;20040;-66
2022/05/29 00:50:50;;;;;;;1.20;0.63;;;21.00;44.00;20.20;101192.00;;;;5056682;28;20043;-66
2022/05/29 00:53:37;;;;;;;4.10;0.73;;;21.00;44.00;20.20;101189.00;;;;5058952;28;20051;-66
2022/05/29 00:56:23;;;;;;;2.75;0.60;;;21.00;44.10;20.20;101193.00;;;;5046212;28;20047;-66
2022/05/29 00:59:23;;;;;;;3.08;0.88;;;21.00;44.00;20.20;101189.00;;;;5062233;28;20086;-66
2022/05/29 01:02:09;;;;;;;1.85;0.80;;;21.00;44.20;20.20;101188.00;;;;5044603;28;20486;-66
2022/05/29 01:04:56;;;;;;;3.47;0.88;;;21.00;44.20;20.20;101186.00;;;;5060044;28;20048;-66
2022/05/29 01:07:48;;;;;;;1.52;0.63;;;21.00;44.10;20.20;101186.00;;;;5044951;28;20052;-66
2022/05/29 01:10:46;;;;;;;2.78;0.65;;;21.00;44.20;20.20;101183.00;;;;5043671;28;20532;-66
2022/05/29 01:13:59;;;;;;;3.20;0.80;;;21.00;44.90;20.20;101168.00;;;;5058876;28;20383;-66
2022/05/29 01:17:18;;;;;;;3.65;1.00;;;21.00;44.10;20.10;101165.00;;;;5070422;28;20036;-66
2022/05/29 01:20:32;;;;;;;2.47;0.75;;;21.00;44.00;20.10;101159.00;;;;5036677;28;20036;-66
2022/05/29 01:23:26;;;;;;;2.50;0.85;;;21.00;44.10;20.10;101169.00;;;;5053043;28;20556;-66
2022/05/29 01:26:46;;;;;;;1.67;0.65;;;21.00;44.20;20.10;101163.00;;;;5070308;28;20055;-66
2022/05/29 01:29:49;;;;;;;4.28;1.00;;;20.90;44.10;20.10;101160.00;;;;5065191;28;20049;-66
2022/05/29 01:32:57;;;;;;;3.50;0.70;;;20.90;44.20;20.10;101160.00;;;;5038351;28;20190;-66
2022/05/29 01:35:55;;;;;;;4.00;0.80;;;20.90;44.20;20.10;101168.00;;;;5050999;28;20049;-66
2022/05/29 01:38:57;;;;;;;2.65;0.70;;;20.90;44.20;20.10;101164.00;;;;5038780;28;20033;-66
2022/05/29 01:41:54;;;;;;;5.20;1.23;;;20.90;44.20;20.10;101167.00;;;;5057738;28;20032;-66
2022/05/29 01:45:18;;;;;;;3.03;1.37;;;20.90;44.20;20.10;101164.00;;;;5046896;28;20043;-66
2022/05/29 01:48:11;;;;;;;2.38;0.60;;;20.90;44.20;20.10;101154.00;;;;5030543;28;20498;-66
2022/05/29 01:51:23;;;;;;;2.72;0.90;;;20.90;44.20;20.10;101155.00;;;;5054331;28;20121;-66
2022/05/29 01:54:17;;;;;;;2.75;0.82;;;20.90;44.20;20.10;101158.00;;;;5057904;28;20048;-66
2022/05/29 01:57:16;;;;;;;3.50;1.20;;;20.90;44.20;20.10;101155.00;;;;5047568;28;20115;-66
2022/05/29 02:00:06;;;;;;;2.70;0.93;;;20.90;44.30;20.10;101157.00;;;;5051412;28;20040;-66
2022/05/29 02:03:05;;;;;;;4.15;1.00;;;20.90;44.30;20.10;101145.00;;;;5048059;28;20068;-66
2022/05/29 02:05:54;;;;;;;1.75;0.80;;;20.90;44.30;20.10;101143.00;;;;5062874;28;20025;-66
2022/05/29 02:09:01;;;;;;;3.30;0.73;;;20.90;44.40;20.10;101140.00;;;;5044618;28;20454;-66
2022/05/29 02:11:54;;;;;;;2.95;1.05;;;20.90;44.40;20.10;101140.00;;;;5047098;28;20075;-66
2022/05/29 02:14:43;;;;;;;1.92;0.65;;;20.90;44.40;20.10;101136.00;;;;5055742;28;20120;-66
2022/05/29 02:17:42;;;;;;;2.85;0.80;;;20.90;44.40;20.10;101134.00;;;;5062698;28;20471;-66
2022/05/29 02:20:36;;;;;;;1.35;0.75;;;20.90;44.40;20.10;101137.00;;;;5062154;28;20395;-66
2022/05/29 02:23:30;;;;;;;3.53;1.33;;;20.90;44.40;20.10;101127.00;;;;5047556;28;20555;-66
2022/05/29 02:26:20;;;;;;;3.40;0.80;;;20.90;44.50;20.10;101124.00;;;;5047064;28;20044;-66
2022/05/29 02:29:10;;;;;;;5.75;1.00;;;20.90;44.50;20.10;101115.00;;;;5071392;28;20040;-66
2022/05/29 02:32:30;;;;;;;2.00;0.88;;;20.90;44.60;20.10;101119.00;;;;5047614;28;20043;-66
2022/05/29 02:35:34;;;;;;;3.25;0.90;;;20.90;44.60;20.10;101125.00;;;;5044057;28;20451;-66
2022/05/29 02:38:44;;;;;;;4.07;0.80;;;20.90;44.60;20.10;101116.00;;;;5050672;28;20401;-67
2022/05/29 02:41:52;;;;;;;1.85;0.95;;;20.90;44.60;20.10;101118.00;;;;5062145;28;20040;-66
2022/05/29 02:44:45;;;;;;;3.35;0.90;;;20.90;44.60;20.10;101120.00;;;;5062415;28;20049;-66
2022/05/29 02:47:55;;;;;;;3.08;1.05;;;20.90;44.60;20.00;101115.00;;;;5056307;28;20053;-66
2022/05/29 02:50:57;;;;;;;3.28;0.88;;;20.90;44.70;20.00;101113.00;;;;5052698;28;20043;-66
2022/05/29 02:53:44;;;;;;;1.63;0.63;;;20.90;44.70;20.00;101109.00;;;;5041802;28;20123;-66
2022/05/29 02:56:31;;;;;;;2.83;0.80;;;20.90;44.70;20.00;101104.00;;;;5062119;28;20114;-66
2022/05/29 02:59:17;;;;;;;3.70;0.95;;;20.90;44.80;20.00;101106.00;;;;5046823;28;20044;-66
2022/05/29 03:02:35;;;;;;;2.55;0.80;;;20.80;44.70;20.00;101099.00;;;;5048242;28;20036;-66
2022/05/29 03:05:59;;;;;;;2.28;0.80;;;20.90;44.90;20.00;101103.00;;;;5053042;28;20062;-66
2022/05/29 03:08:54;;;;;;;3.92;0.98;;;20.90;45.00;20.00;101091.00;;;;5047722;28;20119;-66
2022/05/29 03:11:43;;;;;;;2.95;0.85;;;20.90;44.90;20.00;101089.00;;;;5044617;28;20048;-66
2022/05/29 03:15:07;;;;;;;4.32;1.20;;;20.80;44.90;20.00;101089.00;;;;5063768;28;20052;-66
2022/05/29 03:18:12;;;;;;;2.88;0.73;;;20.80;44.90;20.00;101088.00;;;;5052243;28;20036;-66
2022/05/29 03:21:10;;;;;;;3.83;0.80;;;20.80;45.00;20.00;101084.00;;;;5060724;28;20097;-66
2022/05/29 03:24:45;;;;;;;2.80;1.10;;;20.80;45.00;20.00;101084.00;;;;5064730;28;20036;-66
2022/05/29 03:27:45;;;;;;;2.65;0.93;;;20.80;45.10;20.00;101084.00;;;;5050973;28;20482;-66
2022/05/29 03:30:36;;;;;;;2.17;0.70;;;20.80;45.00;20.00;101086.00;;;;5062474;28;20044;-66
2022/05/29 03:33:22;;;;;;;1.88;0.90;;;20.80;45.20;20.00;101067.00;;;;5061372;28;20437;-66
2022/05/29 03:36:11;;;;;;;2.08;1.02;;;20.80;45.10;20.00;101068.00;;;;5066066;28;20041;-66
2022/05/29 03:38:57;;;;;;;2.78;1.00;;;20.80;45.20;20.00;101071.00;;;;5043266;28;20033;-66
2022/05/29 03:41:48;;;;;;;2.45;0.70;;;20.80;45.20;20.00;101073.00;;;;5059898;28;20471;-66
2022/05/29 03:44:34;;;;;;;2.20;1.17;;;20.70;45.10;20.00;101078.00;;;;5041820;28;20482;-66
2022/05/29 03:47:21;;;;;;;3.60;1.02;;;20.70;45.10;20.00;101083.00;;;;5058302;28;20048;-66
2022/05/29 03:50:11;;;;;;;2.85;0.93;;;20.70;45.10;20.00;101083.00;;;;5053944;28;20036;-66
2022/05/29 03:53:00;;;;;;;4.43;1.30;;;20.70;45.10;20.00;101075.00;;;;5035360;28;20255;-66
2022/05/29 03:55:46;;;;;;;3.50;0.90;;;20.70;45.10;20.00;101075.00;;;;5052588;28;20067;-66
2022/05/29 03:58:32;;;;;;;2.65;1.00;;;20.70;45.10;20.00;101073.00;;;;5061466;28;20036;-66
2022/05/29 04:01:18;;;;;;;3.10;1.10;;;20.80;45.20;20.00;101081.00;;;;5040931;28;20462;-66
2022/05/29 04:04:04;;;;;;;3.22;0.98;;;20.80;45.20;19.90;101071.00;;;;5061658;28;20043;-66
2022/05/29 04:06:50;;;;;;;3.22;1.02;;;20.70;45.20;19.90;101066.00;;;;5055016;28;20039;-66
2022/05/29 04:12:40;;;;;;;4.28;1.38;;;20.70;45.10;19.90;101067.00;;;;5059909;28;20482;-66
2022/05/29 04:15:27;;;;;;;5.47;1.20;;;20.80;45.20;19.90;101071.00;;;;5062611;28;20041;-66
2022/05/29 04:18:15;;;;;;;3.63;0.88;;;20.80;45.30;19.90;101070.00;;;;5060993;28;20043;-66
2022/05/29 04:21:01;;;;;;;;;;;20.70;45.20;19.90;101068.00;;;;5047696;28;20076;-66
2022/05/29 04:23:47;;;;;;;2.00;0.98;;;20.80;45.20;19.90;101060.00;;;;5060913;28;19998;-66
2022/05/29 04:26:34;;;;;;;2.50;0.90;;;20.70;45.10;19.90;101061.00;;;;5059527;28;20051;-66
2022/05/29 04:29:20;;;;;;;2.72;0.80;;;20.70;45.20;19.90;101055.00;;;;5064323;28;20318;-66
2022/05/29 04:35:11;;;;;;;3.25;1.10;;;20.70;45.20;19.90;101056.00;;;;5056125;28;20409;-66
2022/05/29 04:37:58;;;;;;;6.68;1.48;;;20.70;45.30;19.90;101053.00;;;;5060768;28;20052;-66
2022/05/29 04:40:44;;;;;;;1.23;0.80;;;20.70;45.20;19.90;101046.00;;;;5046344;28;20398;-66
2022/05/29 04:43:30;;;;;;;1.85;0.90;;;20.70;45.30;19.90;101049.00;;;;5047963;28;20055;-66
2022/05/29 04:46:16;;;;;;;2.15;0.70;;;20.70;45.30;19.90;101048.00;;;;5061073;28;20052;-66
2022/05/29 04:49:02;;;;;;;1.55;0.70;;;20.70;45.40;19.90;101048.00;;;;5057406;28;20049;-66
2022/05/29 04:51:48;;;;;;;2.95;0.93;;;20.70;45.40;19.90;101049.00;;;;5059165;28;20036;-66
2022/05/29 04:54:38;;;;;;;2.83;1.10;;;20.70;45.40;19.90;101048.00;;;;5075700;28;20036;-66
2022/05/29 04:57:24;;;;;;;4.43;1.00;;;20.70;45.40;19.90;101056.00;;;;5057985;28;20401;-66
2022/05/29 05:00:11;;;;;;;2.67;0.80;;;20.70;45.40;19.90;101056.00;;;;5056057;28;20115;-66
2022/05/29 05:02:57;;;;;;;3.05;0.85;;;20.70;45.40;19.90;101049.00;;;;5059670;28;20032;-66
2022/05/29 05:05:46;;;;;;;2.65;1.10;;;20.70;45.30;19.90;101051.00;;;;5048301;28;20044;-66
2022/05/29 05:08:32;;;;;;;3.85;0.80;;;20.60;45.30;19.90;101043.00;;;;5073404;28;20142;-66
2022/05/29 05:11:18;;;;;;;3.10;0.68;;;20.70;45.40;19.90;101046.00;;;;5056048;28;20048;-66
2022/05/29 05:14:04;;;;;;;2.25;0.82;;;20.70;45.50;19.90;101039.00;;;;5067031;28;20762;-66
2022/05/29 05:16:50;;;;;;;4.45;1.15;;;20.70;45.40;19.90;101041.00;;;;5060597;28;20039;-66
2022/05/29 05:19:36;;;;;;;2.00;0.88;;;20.70;45.50;19.90;101039.00;;;;5077153;28;20044;-66
2022/05/29 05:22:22;;;;;;;3.08;1.05;;;20.70;45.50;19.90;101042.00;;;;5064014;28;20499;-66
2022/05/29 05:25:10;;;;;;;2.35;0.80;;;20.70;45.50;19.90;101047.00;;;;5061622;28;20072;-66
2022/05/29 05:27:56;;;;;;;4.63;1.00;;;20.70;45.50;19.90;101043.00;;;;5063522;28;20551;-66
2022/05/29 05:30:42;;;;;;;4.97;1.13;;;20.70;45.50;19.90;101043.00;;;;5062728;28;20254;-66
2022/05/29 05:33:28;;;;;;;3.35;1.20;;;20.70;45.50;19.90;101044.00;;;;5058962;28;20053;-66
2022/05/29 05:36:15;;;;;;;2.47;0.93;;;20.70;45.60;19.90;101045.00;;;;5063249;28;20063;-66
2022/05/29 05:39:01;;;;;;;3.42;0.80;;;20.70;45.50;19.90;101042.00;;;;5068600;28;20541;-66
2022/05/29 05:41:48;;;;;;;3.50;0.82;;;20.70;45.60;19.90;101047.00;;;;5061822;28;20592;-66
2022/05/29 05:44:34;;;;;;;2.80;0.85;;;20.70;45.60;19.90;101045.00;;;;5061918;28;20076;-66
2022/05/29 05:47:22;;;;;;;2.83;0.98;;;20.70;46.30;19.90;101036.00;;;;5075344;28;20300;-66
2022/05/29 05:50:09;;;;;;;;;;;20.70;45.60;19.90;101041.00;;;;5050252;28;20051;-66
2022/05/29 05:52:55;;;;;;;4.85;1.00;;;20.70;45.50;19.80;101040.00;;;;5075610;28;19912;-66
2022/05/29 05:55:41;;;;;;;1.73;0.63;;;20.70;45.50;19.80;101042.00;;;;5067626;28;20054;-66
2022/05/29 05:58:28;;;;;;;2.35;0.98;;;20.70;45.60;19.80;101039.00;;;;5060097;28;20047;-66
2022/05/29 06:01:16;;;;;;;3.10;0.90;;;20.70;45.70;19.80;101039.00;;;;5046821;28;20032;-66
2022/05/29 06:04:02;;;;;;;3.47;1.08;;;20.70;45.70;19.80;101039.00;;;;5059423;28;20040;-66
2022/05/29 06:06:48;;;;;;;2.40;0.70;;;20.70;45.80;19.80;101046.00;;;;5045233;28;20045;-66
2022/05/29 06:09:34;;;;;;;5.20;1.52;;;20.70;45.80;19.90;101056.00;;;;5061916;28;20483;-66
2022/05/29 06:12:21;;;;;;;1.73;0.77;;;20.70;45.80;19.80;101043.00;;;;5046536;28;20045;-66
2022/05/29 06:15:08;;;;;;;3.22;1.17;;;20.60;45.80;19.90;101047.00;;;;5065284;28;20092;-66
2022/05/29 06:17:54;;;;;;;3.58;1.25;;;20.60;45.80;19.90;101043.00;;;;5055904;28;20561;-66
2022/05/29 06:20:41;;;;;;;3.03;1.00;;;20.70;45.90;19.90;101039.00;;;;5058874;28;20044;-66
2022/05/29 06:23:29;;;;;;;3.90;0.70;;;20.70;45.90;19.90;101041.00;;;;5044758;28;20546;-66
2022/05/29 06:26:15;;;;;;;4.13;1.05;;;20.70;46.00;19.90;101046.00;;;;5046054;28;20497;-66
2022/05/29 06:29:01;;;;;;;4.30;0.88;;;20.70;45.90;19.90;101039.00;;;;5063669;28;20044;-66
2022/05/29 06:31:47;;;;;;;1.85;0.88;;;20.70;45.90;19.90;101039.00;;;;5058483;28;20079;-66
2022/05/29 06:34:33;;;;;;;3.55;0.88;;;20.70;46.00;19.90;101040.00;;;;5062956;28;20044;-66
2022/05/29 06:37:19;;;;;;;3.00;0.80;;;20.70;46.00;19.90;101032.00;;;;5056042;28;20040;-66
2022/05/29 06:40:06;;;;;;;3.60;1.00;;;20.70;46.00;19.90;101044.00;;;;5056887;28;20493;-66
2022/05/29 06:42:52;;;;;;;3.28;1.08;;;20.70;46.10;19.90;101043.00;;;;5073419;28;20493;-66
2022/05/29 06:45:39;;;;;;;2.80;1.02;;;20.70;46.10;19.90;101046.00;;;;5058120;28;20048;-66
2022/05/29 06:48:25;;;;;;;2.80;1.00;;;20.70;46.10;19.90;101043.00;;;;5058983;28;20249;-66
2022/05/29 06:51:19;;;;;;;2.63;0.98;;;20.70;46.10;19.90;101047.00;;;;5059651;28;20044;-66
2022/05/29 06:54:05;;;;;;;3.40;1.10;;;20.70;46.20;19.90;101042.00;;;;5045148;28;20413;-66
2022/05/29 06:56:51;;;;;;;3.15;1.13;;;20.70;46.20;19.90;101042.00;;;;5057596;28;20428;-66
2022/05/29 07:08:55;;;;;;;4.30;1.10;;;20.70;46.30;19.80;101034.00;;;;5059133;28;20040;-66
2022/05/29 07:11:41;;;;;;;2.50;0.63;;;20.70;46.20;19.90;101043.00;;;;5055580;28;20040;-66
2022/05/29 07:14:27;;;;;;;1.25;0.77;;;20.70;46.30;19.90;101040.00;;;;5049679;28;20045;-66
2022/05/29 07:17:13;;;;;;;4.95;0.80;;;20.70;46.30;19.90;101037.00;;;;5070256;28;20075;-66
2022/05/29 07:19:59;;;;;;;2.38;0.90;;;20.70;46.30;19.90;101036.00;;;;5063999;28;20387;-66
2022/05/29 07:22:45;;;;;;;2.05;0.80;;;20.70;46.30;19.90;101038.00;;;;5059220;28;20036;-67
2022/05/29 07:25:31;;;;;;;2.58;1.00;;;20.70;46.40;19.90;101041.00;;;;5056527;28;20461;-68
2022/05/29 07:28:17;;;;;;;2.42;0.82;;;20.70;46.30;19.90;101035.00;;;;5070301;28;20057;-64
2022/05/29 07:31:04;;;;;;;2.47;0.80;;;20.70;46.40;19.90;101042.00;;;;5063317;28;20040;-65
2022/05/29 07:33:50;;;;;;;4.25;0.90;;;20.70;46.30;19.90;101036.00;;;;5061978;28;20102;-65
2022/05/29 07:36:36;;;;;;;3.60;0.90;;;20.70;46.30;19.90;101037.00;;;;5061967;28;20567;-66
2022/05/29 07:39:22;;;;;;;3.28;0.88;;;20.70;46.40;19.90;101033.00;;;;5063713;28;20040;-65
2022/05/29 07:45:13;;;;;;;1.77;0.75;;;20.80;46.40;19.90;101028.00;;;;5051057;28;20132;-65
2022/05/29 07:47:59;;;;;;;4.30;1.15;;;20.80;46.40;19.90;101025.00;;;;5060312;28;20153;-65
2022/05/29 07:50:45;;;;;;;5.63;1.10;;;20.80;46.40;19.90;101026.00;;;;5058450;28;20090;-69
2022/05/29 07:53:31;;;;;;;3.40;0.75;;;20.80;46.40;19.90;101032.00;;;;5073472;28;20040;-65
2022/05/29 07:56:19;;;;;;;2.92;0.68;;;20.80;46.40;19.90;101027.00;;;;5060567;28;20045;-66
2022/05/29 07:59:05;;;;;;;;;;;20.80;46.30;19.90;101038.00;;;;5059236;28;20067;-66
2022/05/29 08:01:51;;;;;;;2.67;0.93;;;20.80;46.20;19.90;101027.00;;;;5059591;28;20054;-66
2022/05/29 08:04:39;;;;;;;2.42;0.70;;;20.80;46.20;19.90;101015.00;;;;5062974;28;20048;-65
2022/05/29 08:07:25;;;;;;;;;;;20.80;46.30;19.90;101014.00;;;;5073269;28;20287;-66
2022/05/29 08:10:11;;;;;;;2.80;0.82;;;20.80;46.20;19.90;101023.00;;;;5061009;28;19927;-65
2022/05/29 08:12:57;;;;;;;3.45;0.93;;;20.80;46.20;19.90;101016.00;;;;5046158;28;20560;-66
2022/05/29 08:15:43;;;;;;;5.32;1.00;;;20.80;46.20;19.90;101013.00;;;;5061913;28;20032;-66
2022/05/29 08:18:30;;;;;;;3.55;1.00;;;20.80;46.30;19.90;101013.00;;;;5074472;28;20537;-66
2022/05/29 08:21:16;;;;;;;8.13;1.17;;;20.80;46.20;20.00;101010.00;;;;5042209;28;20041;-64
2022/05/29 08:33:28;;;;;;;4.93;1.17;;;20.80;45.90;19.80;101020.00;;;;5067319;28;20067;-64
2022/05/29 08:36:22;;;;;;;6.70;1.25;;;20.80;45.90;19.80;101012.00;;;;5035972;28;20127;-72
2022/05/29 08:39:08;;;;;;;10.20;1.77;;;20.80;45.80;19.80;101012.00;;;;5062228;28;20094;-66
2022/05/29 08:41:55;;;;;;;4.68;1.63;;;20.80;45.80;19.70;101007.00;;;;5050066;28;20477;-66
2022/05/29 08:44:51;;;;;;;4.78;1.40;;;20.80;45.60;19.70;101020.00;;;;5041525;28;20048;-65
2022/05/29 08:47:37;;;;;;;6.78;1.63;;;20.80;45.50;19.70;101024.00;;;;5059182;28;20092;-65
2022/05/29 08:50:39;;;;;;;5.85;1.00;;;20.80;45.80;19.70;101033.00;;;;5057566;28;20498;-65
2022/05/29 08:53:44;;;;;;;10.20;1.67;;;20.80;45.50;19.70;101030.00;;;;5038892;28;20498;-65
2022/05/29 08:56:53;;;;;;;5.72;1.20;;;20.80;45.70;19.60;101027.00;;;;5044487;28;20090;-65
2022/05/29 09:00:12;;;;;;;5.25;1.42;;;20.70;45.50;19.60;101032.00;;;;5036029;28;20075;-65
2022/05/29 09:03:36;;;;;;;4.50;1.30;;;20.70;45.60;19.60;101027.00;;;;5051446;28;20179;-66
2022/05/29 09:06:28;;;;;;;12.80;1.42;;;20.70;45.60;19.50;101028.00;;;;5056073;28;20080;-66
2022/05/29 09:09:41;;;;;;;3.92;1.27;;;20.60;45.80;19.50;101023.00;;;;5045687;28;20048;-66
2022/05/29 09:12:40;;;;;;;4.32;0.90;;;20.60;45.90;19.50;101028.00;;;;5061311;28;20040;-66
2022/05/29 09:15:40;;;;;;;4.60;0.80;;;20.60;45.80;19.50;101018.00;;;;5057126;28;20045;-66
2022/05/29 09:18:33;;;;;;;4.55;0.90;;;20.60;45.80;19.50;101015.00;;;;5063392;28;20041;-66
2022/05/29 09:21:23;;;;;;;6.35;1.05;;;20.60;45.60;19.50;101016.00;;;;5044003;28;20063;-65
2022/05/29 09:24:50;;;;;;;1.75;0.68;;;20.60;46.00;19.50;101016.00;;;;5056854;28;20393;-65
2022/05/29 09:27:38;;;;;;;2.80;0.60;;;20.60;46.30;19.40;101018.00;;;;5060736;28;20099;-66
2022/05/29 09:30:24;;;;;;;4.40;1.23;;;20.60;46.10;19.40;101019.00;;;;5061193;28;20041;-65
2022/05/29 09:33:24;;;;;;;5.10;1.00;;;20.50;46.10;19.50;101016.00;;;;5047947;28;20040;-65
2022/05/29 09:37:10;;;;;;;8.27;1.83;;;20.50;45.90;19.50;101005.00;;;;5052569;28;20064;-66
2022/05/29 09:39:57;;;;;;;16.65;2.45;;;20.50;46.00;19.40;101013.00;;;;5008813;28;20429;-65
2022/05/29 09:42:44;;;;;;;19.20;2.92;;;20.50;46.10;19.40;101009.00;;;;4991947;28;20630;-65
2022/05/29 09:45:32;;;;;;;9.98;2.00;;;20.50;46.10;19.50;101015.00;;;;5053341;28;20127;-65
2022/05/29 09:51:38;;;;;;;7.50;1.73;;;20.50;45.80;19.40;101003.00;;;;5060107;28;20041;-67
2022/05/29 09:54:29;;;;;;;18.67;2.42;;;20.50;46.00;19.50;101002.00;;;;5041590;28;20497;-66
2022/05/29 09:57:25;;;;;;;17.33;2.80;;;20.50;46.20;19.50;101007.00;;;;5039769;28;20758;-66
2022/05/29 10:00:35;;;;;;;19.23;2.72;;;20.50;46.30;19.60;100997.00;;;;5051045;28;20036;-67
2022/05/29 10:03:44;;;;;;;32.25;5.45;;;20.50;46.30;19.60;101001.00;;;;5045686;28;20103;-66
2022/05/29 10:06:41;;;;;;;22.75;4.13;;;20.50;46.40;19.70;101001.00;;;;5066055;28;20033;-66
2022/05/29 10:09:27;;;;;;;22.33;5.10;;;20.50;46.50;19.70;100997.00;;;;5064518;28;20508;-66
2022/05/29 10:12:18;;;;;;;29.95;6.10;;;20.60;46.60;19.70;100996.00;;;;5045343;28;20074;-66
2022/05/29 10:15:26;;;;;;;95.75;12.88;;;20.60;46.60;19.80;100985.00;;;;5060831;28;20036;-66
2022/05/29 10:18:36;;;;;;;59.60;10.48;;;20.60;46.50;19.80;100999.00;;;;5067310;28;20033;-65
2022/05/29 10:21:28;;;;;;;57.78;10.13;;;20.60;46.50;19.80;100999.00;;;;5046356;28;20478;-67
2022/05/29 10:24:37;;;;;;;55.95;9.02;;;20.70;46.50;19.90;101003.00;;;;5048520;28;20048;-66
2022/05/29 10:27:32;;;;;;;;;;;20.70;46.60;19.90;100997.00;;;;5039682;28;20123;-66
2022/05/29 10:30:37;;;;;;;50.13;8.80;;;20.80;46.40;19.90;100989.00;;;;5061920;28;20366;-66
2022/05/29 10:33:27;;;;;;;48.97;8.10;;;20.80;46.50;19.90;100997.00;;;;5039228;28;20056;-66
2022/05/29 10:36:15;;;;;;;37.55;6.20;;;20.80;46.50;19.90;100991.00;;;;5057763;28;20094;-66
2022/05/29 10:39:23;;;;;;;47.95;7.43;;;20.80;46.60;19.90;100994.00;;;;5052453;28;20036;-66
2022/05/29 10:42:09;;;;;;;38.88;6.43;;;20.80;46.70;19.90;100994.00;;;;5050597;28;20041;-66
2022/05/29 10:44:57;;;;;;;34.80;5.82;;;20.80;47.30;20.00;100985.00;;;;5046789;28;20433;-66
2022/05/29 10:48:02;;;;;;;35.25;5.72;;;20.90;46.70;20.00;100988.00;;;;5061388;28;20485;-66
2022/05/29 10:51:23;;;;;;;34.67;6.47;;;20.90;46.70;20.00;100986.00;;;;5061504;28;20349;-66
2022/05/29 10:54:17;;;;;;;44.90;6.75;;;20.90;46.60;20.00;100988.00;;;;5046398;28;20045;-66
2022/05/29 10:57:12;;;;;;;37.15;7.65;;;20.90;46.60;20.00;100997.00;;;;5072798;28;20045;-65
2022/05/29 11:00:06;;;;;;;124.40;18.15;;;20.90;46.60;20.00;100996.00;;;;5047113;28;20036;-66
2022/05/29 11:03:26;;;;;;;103.55;14.98;;;20.90;46.60;20.00;100993.00;;;;5057955;28;20040;-65
2022/05/29 11:06:21;;;;;;;63.88;11.30;;;20.90;46.60;20.00;100997.00;;;;5058007;28;20471;-66
2022/05/29 11:09:55;;;;;;;68.70;11.05;;;21.00;46.50;20.00;100990.00;;;;5049788;28;20480;-66
2022/05/29 11:13:20;;;;;;;59.08;9.45;;;21.00;46.60;20.00;100991.00;;;;5057248;28;20036;-65
2022/05/29 11:16:22;;;;;;;63.53;11.98;;;21.00;46.50;20.00;100985.00;;;;5071570;28;20048;-65
2022/05/29 11:19:45;;;;;;;53.08;8.82;;;21.00;46.50;20.10;100974.00;;;;5047929;28;20354;-66
2022/05/29 11:22:49;;;;;;;38.00;6.63;;;21.00;46.50;20.10;100978.00;;;;5041736;28;20494;-66
2022/05/29 11:26:00;;;;;;;43.28;8.88;;;21.00;46.50;20.10;100977.00;;;;5060963;28;20051;-66
2022/05/29 11:29:12;;;;;;;45.13;7.50;;;21.00;46.50;20.10;100979.00;;;;5057922;28;20454;-66
2022/05/29 11:32:17;;;;;;;35.72;6.97;;;21.00;46.50;20.10;100969.00;;;;5045072;28;20486;-66
2022/05/29 11:35:22;;;;;;;38.67;7.18;;;21.00;46.50;20.10;100959.00;;;;5047502;28;20041;-66
2022/05/29 11:38:33;;;;;;;50.17;8.60;;;21.00;46.40;20.10;100962.00;;;;5047693;28;20045;-66
2022/05/29 11:41:37;;;;;;;26.50;4.80;;;21.00;46.50;20.10;100957.00;;;;5055897;28;20091;-66
2022/05/29 11:44:54;;;;;;;27.92;4.50;;;21.00;46.20;20.10;100960.00;;;;5061899;28;20090;-66
2022/05/29 11:51:22;;;;;;;16.35;4.40;;;21.10;46.00;20.20;100939.00;;;;5061969;28;20047;-66
2022/05/29 11:54:23;;;;;;;24.92;6.20;;;21.00;45.90;20.20;100941.00;;;;5053790;28;20055;-66
2022/05/29 11:57:12;;;;;;;17.83;3.78;;;21.10;45.90;20.20;100944.00;;;;5045873;28;20033;-66
2022/05/29 12:00:31;;;;;;;20.48;5.22;;;21.10;45.90;20.20;100939.00;;;;5056309;28;20055;-66
2022/05/29 12:03:25;;;;;;;21.40;4.82;;;21.10;45.80;20.20;100936.00;;;;5045243;28;20068;-66
2022/05/29 12:06:26;;;;;;;15.25;3.55;;;21.20;45.80;20.20;100940.00;;;;5046232;28;20033;-66
2022/05/29 12:09:51;;;;;;;20.98;3.30;;;21.20;45.80;20.20;100940.00;;;;5044800;28;20033;-65
2022/05/29 12:12:42;;;;;;;19.58;3.60;;;21.20;45.80;20.30;100934.00;;;;5056280;28;20040;-65
2022/05/29 12:15:29;;;;;;;16.90;2.35;;;21.20;45.60;20.20;100933.00;;;;5048147;28;20142;-65
2022/05/29 12:18:18;;;;;;;12.35;2.22;;;21.30;45.70;20.30;100946.00;;;;5039567;28;20187;-65
2022/05/29 12:21:04;;;;;;;11.05;2.10;;;21.20;45.50;20.30;100944.00;;;;5046197;28;20069;-66
2022/05/29 12:23:51;;;;;;;8.07;1.92;;;21.20;45.40;20.30;100939.00;;;;5047332;28;20036;-66
2022/05/29 12:26:48;;;;;;;6.77;1.80;;;21.20;45.30;20.30;100936.00;;;;5059409;28;20060;-66
2022/05/29 12:29:50;;;;;;;8.13;1.85;;;21.20;45.30;20.20;100939.00;;;;5072459;28;20287;-66
2022/05/29 12:32:37;;;;;;;5.25;1.20;;;21.20;45.20;20.20;100934.00;;;;5040246;28;20037;-66
2022/05/29 12:35:26;;;;;;;4.32;1.30;;;21.20;45.20;20.20;100930.00;;;;5061037;28;20036;-65
2022/05/29 12:38:26;;;;;;;5.55;1.10;;;21.20;45.20;20.30;100936.00;;;;5041547;28;20077;-66
2022/05/29 12:42:06;;;;;;;5.53;1.13;;;21.20;45.20;20.20;100930.00;;;;5044940;28;20390;-66
2022/05/29 12:45:05;;;;;;;5.10;1.43;;;21.20;45.20;20.20;100926.00;;;;5006544;28;20050;-66
2022/05/29 12:48:31;;;;;;;4.32;1.38;;;21.20;45.10;20.20;100937.00;;;;5038139;28;20116;-66
2022/05/29 12:51:42;;;;;;;4.13;1.23;;;21.20;45.00;20.20;100917.00;;;;5045734;28;20055;-66
2022/05/29 12:55:13;;;;;;;2.28;0.90;;;21.20;45.00;20.20;100928.00;;;;5058747;28;20041;-66
2022/05/29 12:58:34;;;;;;;4.45;0.85;;;21.20;44.90;20.20;100926.00;;;;5056729;28;20044;-66
2022/05/29 13:02:20;;;;;;;3.78;0.73;;;21.20;44.90;20.20;100934.00;;;;5037917;28;20098;-66
2022/05/29 13:05:55;;;;;;;4.82;0.80;;;21.20;44.90;20.20;100927.00;;;;5043410;28;20103;-66
2022/05/29 13:09:22;;;;;;;3.72;0.90;;;21.20;44.80;20.20;100931.00;;;;5070723;28;20480;-66
2022/05/29 13:12:15;;;;;;;1.63;0.40;;;21.20;44.80;20.20;100937.00;;;;5073539;28;20159;-65
2022/05/29 13:15:07;;;;;;;2.35;0.50;;;21.20;44.90;20.20;100926.00;;;;5043955;28;20079;-66
2022/05/29 13:21:20;;;;;;;1.45;0.40;;;21.20;44.80;20.20;100929.00;;;;5041086;28;20509;-66
2022/05/29 13:24:14;;;;;;;2.05;0.50;;;21.20;44.70;20.20;100930.00;;;;5044856;28;20459;-66
2022/05/29 13:27:12;;;;;;;1.52;0.30;;;21.20;44.60;20.20;100929.00;;;;5048624;28;20043;-66